createdAt,value
2018-09-10T00:00:49.524Z,12.10
2018-09-10T00:03:17.952Z,12.10
2018-09-10T00:05:46.338Z,12.20
2018-09-10T00:08:14.773Z,12.10
2018-09-10T00:10:43.202Z,12.10
2018-09-10T00:13:11.608Z,12.00
2018-09-10T00:15:40.010Z,11.70
2018-09-10T00:18:10.952Z,12.20
2018-09-10T00:20:39.356Z,12.00
2018-09-10T00:23:07.767Z,12.00
2018-09-10T00:25:36.181Z,12.00
2018-09-10T00:28:04.622Z,12.00
2018-09-10T00:30:33.127Z,11.90
2018-09-10T00:33:01.522Z,12.00
2018-09-10T00:37:58.110Z,11.70
2018-09-10T00:40:26.498Z,11.40
2018-09-10T00:42:54.906Z,11.90
2018-09-10T00:45:23.338Z,11.60
2018-09-10T00:47:51.735Z,11.80
2018-09-10T00:50:20.129Z,12.00
2018-09-10T00:52:48.526Z,11.70
2018-09-10T00:57:45.068Z,12.00
2018-09-10T01:00:13.481Z,11.60
2018-09-10T01:02:41.881Z,11.90
2018-09-10T01:05:10.307Z,11.60
2018-09-10T01:07:38.701Z,11.50
2018-09-10T01:10:07.144Z,11.90
2018-09-10T01:12:35.550Z,11.60
2018-09-10T01:15:04.079Z,11.70
2018-09-10T01:17:34.918Z,11.60
2018-09-10T01:20:04.075Z,11.60
2018-09-10T01:22:32.454Z,11.50
2018-09-10T01:27:28.924Z,11.40
2018-09-10T01:29:57.398Z,11.30
2018-09-10T01:32:25.786Z,11.50
2018-09-10T01:34:59.805Z,11.10
2018-09-10T01:37:28.221Z,11.50
2018-09-10T01:39:56.642Z,11.00
2018-09-10T01:42:25.052Z,11.40
2018-09-10T01:44:53.444Z,11.30
2018-09-10T01:47:21.857Z,11.30
2018-09-10T01:49:50.246Z,11.40
2018-09-10T01:52:18.832Z,11.30
2018-09-10T01:54:47.249Z,11.20
2018-09-10T01:57:15.753Z,11.30
2018-09-10T01:59:44.140Z,11.60
2018-09-10T02:02:12.589Z,11.40
2018-09-10T02:04:41.087Z,11.20
2018-09-10T02:07:09.479Z,11.10
2018-09-10T02:09:37.865Z,11.20
2018-09-10T02:14:37.448Z,11.10
2018-09-10T02:17:06.309Z,11.00
2018-09-10T02:19:34.737Z,11.10
2018-09-10T02:22:04.238Z,11.00
2018-09-10T02:24:32.631Z,10.90
2018-09-10T02:27:01.148Z,11.00
2018-09-10T02:29:29.545Z,11.00
2018-09-10T02:34:28.574Z,11.00
2018-09-10T02:36:57.018Z,10.80
2018-09-10T02:39:25.424Z,10.80
2018-09-10T02:41:53.823Z,10.90
2018-09-10T02:44:22.235Z,10.80
2018-09-10T02:46:53.613Z,10.80
2018-09-10T02:49:22.006Z,10.90
2018-09-10T02:51:50.448Z,10.90
2018-09-10T02:54:18.939Z,10.80
2018-09-10T02:56:47.325Z,10.80
2018-09-10T02:59:15.974Z,10.80
2018-09-10T03:04:19.678Z,10.70
2018-09-10T03:06:48.088Z,10.70
2018-09-10T03:09:16.500Z,10.70
2018-09-10T03:11:44.943Z,10.70
2018-09-10T03:14:13.348Z,10.80
2018-09-10T03:16:41.791Z,10.60
2018-09-10T03:19:10.190Z,10.50
2018-09-10T03:21:38.595Z,10.60
2018-09-10T03:24:07.151Z,10.40
2018-09-10T03:26:35.564Z,10.40
2018-09-10T03:29:03.960Z,10.40
2018-09-10T03:31:32.378Z,10.50
2018-09-10T03:34:00.779Z,10.50
2018-09-10T03:36:29.188Z,10.50
2018-09-10T03:38:57.589Z,10.30
2018-09-10T03:41:25.954Z,10.30
2018-09-10T03:43:54.380Z,10.40
2018-09-10T03:46:22.748Z,10.30
2018-09-10T03:48:51.162Z,10.30
2018-09-10T03:51:19.594Z,10.70
2018-09-10T03:53:48.058Z,10.40
2018-09-10T03:56:16.484Z,10.40
2018-09-10T03:58:44.926Z,10.40
2018-09-10T04:01:13.320Z,10.40
2018-09-10T04:03:41.722Z,10.40
2018-09-10T04:06:10.136Z,10.40
2018-09-10T04:08:38.552Z,10.40
2018-09-10T04:11:06.974Z,10.40
2018-09-10T04:13:35.400Z,10.60
2018-09-10T04:16:03.847Z,10.30
2018-09-10T04:18:32.366Z,10.60
2018-09-10T04:21:00.820Z,10.20
2018-09-10T04:23:29.172Z,10.20
2018-09-10T04:25:57.628Z,10.10
2018-09-10T04:28:26.064Z,10.00
2018-09-10T04:30:54.470Z,10.10
2018-09-10T04:33:24.911Z,10.40
2018-09-10T04:35:53.413Z,10.00
2018-09-10T04:38:21.816Z,10.00
2018-09-10T04:40:50.279Z,10.00
2018-09-10T04:43:18.690Z,10.00
2018-09-10T04:45:47.133Z,10.00
2018-09-10T04:48:15.551Z,9.70
2018-09-10T04:50:43.937Z,9.90
2018-09-10T04:53:12.307Z,10.10
2018-09-10T04:55:40.711Z,10.00
2018-09-10T04:58:09.758Z,9.80
2018-09-10T05:00:38.243Z,9.80
2018-09-10T05:03:06.656Z,9.90
2018-09-10T05:05:35.037Z,9.80
2018-09-10T05:08:03.449Z,9.90
2018-09-10T05:10:31.835Z,9.90
2018-09-10T05:13:00.241Z,9.90
2018-09-10T05:15:28.655Z,10.00
2018-09-10T05:17:57.039Z,10.00
2018-09-10T05:20:25.527Z,10.10
2018-09-10T05:22:53.928Z,10.10
2018-09-10T05:25:22.343Z,10.00
2018-09-10T05:27:50.717Z,10.10
2018-09-10T05:30:19.147Z,10.50
2018-09-10T05:32:47.635Z,10.10
2018-09-10T05:35:16.047Z,10.00
2018-09-10T05:37:44.435Z,10.30
2018-09-10T05:40:12.866Z,10.40
2018-09-10T05:42:41.262Z,10.60
2018-09-10T05:47:40.235Z,10.60
2018-09-10T05:50:09.232Z,10.70
2018-09-10T05:52:37.630Z,10.80
2018-09-10T05:55:06.187Z,10.90
2018-09-10T05:57:34.574Z,11.00
2018-09-10T06:00:03.005Z,11.00
2018-09-10T06:02:31.529Z,11.10
2018-09-10T06:04:59.934Z,11.20
2018-09-10T06:07:28.422Z,11.10
2018-09-10T06:09:56.873Z,11.20
2018-09-10T06:12:25.266Z,11.30
2018-09-10T06:14:53.824Z,11.30
2018-09-10T06:17:22.252Z,11.50
2018-09-10T06:19:50.650Z,11.70
2018-09-10T06:22:19.078Z,11.60
2018-09-10T06:24:48.194Z,11.70
2018-09-10T06:27:16.952Z,11.80
2018-09-10T06:29:45.646Z,12.00
2018-09-10T06:32:14.130Z,12.20
2018-09-10T06:34:42.508Z,12.30
2018-09-10T06:37:11.670Z,12.50
2018-09-10T06:42:08.233Z,12.60
2018-09-10T06:44:37.611Z,12.70
2018-09-10T06:47:06.132Z,12.90
2018-09-10T06:49:34.646Z,12.90
2018-09-10T06:52:03.098Z,13.00
2018-09-10T06:54:31.506Z,13.20
2018-09-10T06:57:00.011Z,13.40
2018-09-10T07:01:52.908Z,13.60
2018-09-10T07:04:21.330Z,13.60
2018-09-10T07:06:50.414Z,13.80
2018-09-10T07:09:18.810Z,13.90
2018-09-10T07:11:47.224Z,14.00
2018-09-10T07:14:15.613Z,14.10
2018-09-10T07:16:45.146Z,14.30
2018-09-10T07:19:13.587Z,14.80
2018-09-10T07:21:42.000Z,14.70
2018-09-10T07:24:10.598Z,14.70
2018-09-10T07:26:39.006Z,14.90
2018-09-10T07:29:07.429Z,15.00
2018-09-10T07:31:35.852Z,15.50
2018-09-10T07:34:04.258Z,15.30
2018-09-10T07:36:32.655Z,15.40
2018-09-10T07:39:01.052Z,15.50
2018-09-10T07:41:29.438Z,15.70
2018-09-10T07:43:58.019Z,15.90
2018-09-10T07:46:26.298Z,15.90
2018-09-10T07:48:54.747Z,16.10
2018-09-10T07:51:23.246Z,16.10
2018-09-10T07:53:51.896Z,16.30
2018-09-10T07:56:20.571Z,16.40
2018-09-10T07:58:49.070Z,16.60
2018-09-10T08:01:17.463Z,16.70
2018-09-10T08:03:46.535Z,16.80
2018-09-10T08:06:15.073Z,16.80
2018-09-10T08:08:43.495Z,17.10
2018-09-10T08:11:11.878Z,17.60
2018-09-10T08:13:40.943Z,17.50
2018-09-10T08:16:09.510Z,17.60
2018-09-10T08:18:38.881Z,17.70
2018-09-10T08:21:07.381Z,18.00
2018-09-10T08:23:36.103Z,18.40
2018-09-10T08:26:04.886Z,18.50
2018-09-10T08:28:33.280Z,18.70
2018-09-10T08:31:01.705Z,18.80
2018-09-10T08:33:30.108Z,19.30
2018-09-10T08:35:58.790Z,19.80
2018-09-10T08:38:27.306Z,20.80
2018-09-10T08:40:55.859Z,20.90
2018-09-10T08:43:24.355Z,21.30
2018-09-10T08:45:52.791Z,21.50
2018-09-10T08:48:21.838Z,22.10
2018-09-10T08:50:50.254Z,22.70
2018-09-10T08:53:18.828Z,22.60
2018-09-10T08:55:48.097Z,22.90
2018-09-10T08:58:16.245Z,23.60
2018-09-10T09:00:44.679Z,24.10
2018-09-10T09:03:13.105Z,24.50
2018-09-10T09:05:41.490Z,24.30
2018-09-10T09:08:10.147Z,24.10
2018-09-10T09:10:38.564Z,24.30
2018-09-10T09:13:07.025Z,23.90
2018-09-10T09:15:35.433Z,23.50
2018-09-10T09:18:03.825Z,24.10
2018-09-10T09:20:32.211Z,25.00
2018-09-10T09:23:00.703Z,25.00
2018-09-10T09:25:29.201Z,25.80
2018-09-10T09:27:57.690Z,26.60
2018-09-10T09:30:26.166Z,27.50
2018-09-10T09:32:54.593Z,28.20
2018-09-10T09:36:31.313Z,27.40
2018-09-10T09:39:05.044Z,27.40
2018-09-10T09:41:38.713Z,26.90
2018-09-10T09:44:13.425Z,26.60
2018-09-10T09:46:41.860Z,26.80
2018-09-10T09:49:10.411Z,26.90
2018-09-10T09:51:38.859Z,27.50
2018-09-10T09:54:07.281Z,28.00
2018-09-10T09:56:35.783Z,28.00
2018-09-10T09:59:04.169Z,28.50
2018-09-10T10:01:37.859Z,28.50
2018-09-10T10:04:11.214Z,28.60
2018-09-10T10:06:39.588Z,29.00
2018-09-10T10:09:10.297Z,29.40
2018-09-10T10:11:39.129Z,29.50
2018-09-10T10:14:08.399Z,29.60
2018-09-10T10:16:37.080Z,29.50
2018-09-10T10:19:05.742Z,29.20
2018-09-10T10:21:34.161Z,29.10
2018-09-10T10:24:02.565Z,29.10
2018-09-10T10:26:30.990Z,28.60
2018-09-10T10:28:59.492Z,28.80
2018-09-10T10:31:27.904Z,28.80
2018-09-10T10:33:56.317Z,28.10
2018-09-10T10:36:24.735Z,28.30
2018-09-10T10:38:53.158Z,28.20
2018-09-10T10:41:21.578Z,28.70
2018-09-10T10:43:49.971Z,28.50
2018-09-10T10:46:18.371Z,28.80
2018-09-10T10:48:46.802Z,29.10
2018-09-10T10:51:15.214Z,29.20
2018-09-10T10:53:43.625Z,29.60
2018-09-10T10:56:12.064Z,29.90
2018-09-10T10:58:40.503Z,29.90
2018-09-10T11:01:08.909Z,29.70
2018-09-10T11:03:37.338Z,29.70
2018-09-10T11:06:05.759Z,30.00
2018-09-10T11:08:34.230Z,29.60
2018-09-10T11:11:02.635Z,30.10
2018-09-10T11:13:31.057Z,29.40
2018-09-10T11:15:59.496Z,29.80
2018-09-10T11:18:27.904Z,29.60
2018-09-10T11:20:56.330Z,29.80
2018-09-10T11:23:24.710Z,29.60
2018-09-10T11:25:53.114Z,30.10
2018-09-10T11:28:21.498Z,30.00
2018-09-10T11:30:49.906Z,29.50
2018-09-10T11:33:18.417Z,29.50
2018-09-10T11:35:46.858Z,29.30
2018-09-10T11:38:15.265Z,29.30
2018-09-10T11:40:43.715Z,29.90
2018-09-10T11:43:12.148Z,30.40
2018-09-10T11:45:40.554Z,30.60
2018-09-10T11:48:08.982Z,30.70
2018-09-10T11:50:37.418Z,31.10
2018-09-10T11:53:05.846Z,30.70
2018-09-10T11:55:34.322Z,30.40
2018-09-10T11:58:02.715Z,30.30
2018-09-10T12:00:31.183Z,29.70
2018-09-10T12:02:59.600Z,29.80
2018-09-10T12:05:28.021Z,28.80
2018-09-10T12:07:56.455Z,28.60
2018-09-10T12:10:24.902Z,28.70
2018-09-10T12:12:53.312Z,29.40
2018-09-10T12:15:21.739Z,29.70
2018-09-10T12:17:50.175Z,29.50
2018-09-10T12:20:18.714Z,28.90
2018-09-10T12:22:47.161Z,28.50
2018-09-10T12:25:15.582Z,28.20
2018-09-10T12:27:44.030Z,28.10
2018-09-10T12:30:12.438Z,28.10
2018-09-10T12:32:40.824Z,27.90
2018-09-10T12:35:09.265Z,27.30
2018-09-10T12:37:37.662Z,27.00
2018-09-10T12:40:06.201Z,27.00
2018-09-10T12:42:34.638Z,26.90
2018-09-10T12:45:03.147Z,26.80
2018-09-10T12:47:31.575Z,26.70
2018-09-10T12:49:59.963Z,26.80
2018-09-10T12:52:28.398Z,26.60
2018-09-10T12:54:56.784Z,26.50
2018-09-10T12:57:25.203Z,26.20
2018-09-10T12:59:53.616Z,26.20
2018-09-10T13:02:22.086Z,26.30
2018-09-10T13:04:50.518Z,26.40
2018-09-10T13:07:19.014Z,26.40
2018-09-10T13:09:47.428Z,26.40
2018-09-10T13:12:15.839Z,26.50
2018-09-10T13:14:44.299Z,26.60
2018-09-10T13:17:12.730Z,26.50
2018-09-10T13:19:41.109Z,26.50
2018-09-10T13:22:09.514Z,26.50
2018-09-10T13:24:37.943Z,26.60
2018-09-10T13:27:06.376Z,26.60
2018-09-10T13:29:34.792Z,26.70
2018-09-10T13:32:03.215Z,26.70
2018-09-10T13:34:31.615Z,26.70
2018-09-10T13:37:00.040Z,26.70
2018-09-10T13:40:31.942Z,26.60
2018-09-10T13:43:00.456Z,26.50
2018-09-10T13:45:28.816Z,26.50
2018-09-10T13:47:57.259Z,26.40
2018-09-10T13:50:25.690Z,26.40
2018-09-10T13:52:54.090Z,26.30
2018-09-10T13:55:22.477Z,26.20
2018-09-10T13:57:50.885Z,26.10
2018-09-10T14:00:19.309Z,26.20
2018-09-10T14:02:47.747Z,26.20
2018-09-10T14:05:16.169Z,26.20
2018-09-10T14:07:44.613Z,26.30
2018-09-10T14:10:13.056Z,26.50
2018-09-10T14:12:41.507Z,26.60
2018-09-10T14:15:09.919Z,26.60
2018-09-10T14:17:38.431Z,26.50
2018-09-10T14:20:06.840Z,26.40
2018-09-10T14:22:35.250Z,26.30
2018-09-10T14:25:03.706Z,26.20
2018-09-10T14:27:32.252Z,26.10
2018-09-10T14:30:00.699Z,26.10
2018-09-10T14:32:29.122Z,26.00
2018-09-10T14:34:57.600Z,26.00
2018-09-10T14:37:26.064Z,26.00
2018-09-10T14:39:54.500Z,25.90
2018-09-10T14:42:22.919Z,25.90
2018-09-10T14:44:51.336Z,26.00
2018-09-10T14:47:19.754Z,26.00
2018-09-10T14:49:48.183Z,26.00
2018-09-10T14:52:16.603Z,25.90
2018-09-10T14:54:45.025Z,25.90
2018-09-10T14:57:13.458Z,25.80
2018-09-10T14:59:41.876Z,25.80
2018-09-10T15:02:10.307Z,25.70
2018-09-10T15:04:38.865Z,25.70
2018-09-10T15:07:07.350Z,25.70
2018-09-10T15:09:35.754Z,25.70
2018-09-10T15:12:04.243Z,25.60
2018-09-10T15:14:32.734Z,25.50
2018-09-10T15:17:01.166Z,25.50
2018-09-10T15:19:29.630Z,25.40
2018-09-10T15:21:58.075Z,25.30
2018-09-10T15:24:26.511Z,25.20
2018-09-10T15:26:54.947Z,25.20
2018-09-10T15:29:23.377Z,25.10
2018-09-10T15:31:51.787Z,25.20
2018-09-10T15:34:20.295Z,25.10
2018-09-10T15:36:48.739Z,25.40
2018-09-10T15:39:17.150Z,25.50
2018-09-10T15:41:45.579Z,25.50
2018-09-10T15:44:14.048Z,25.30
2018-09-10T15:46:42.537Z,25.30
2018-09-10T15:49:11.113Z,25.30
2018-09-10T15:51:39.498Z,25.20
2018-09-10T15:54:08.001Z,25.10
2018-09-10T15:56:36.559Z,25.00
2018-09-10T15:59:05.060Z,24.90
2018-09-10T16:01:33.482Z,24.80
2018-09-10T16:04:01.945Z,24.70
2018-09-10T16:06:30.388Z,24.50
2018-09-10T16:08:58.853Z,24.50
2018-09-10T16:11:27.307Z,24.30
2018-09-10T16:13:55.753Z,24.30
2018-09-10T16:16:24.264Z,24.20
2018-09-10T16:18:52.712Z,24.20
2018-09-10T16:21:21.173Z,24.00
2018-09-10T16:23:49.596Z,24.00
2018-09-10T16:26:18.039Z,23.90
2018-09-10T16:28:46.588Z,23.80
2018-09-10T16:31:15.036Z,23.80
2018-09-10T16:33:43.462Z,23.60
2018-09-10T16:36:11.944Z,23.50
2018-09-10T16:38:40.404Z,23.40
2018-09-10T16:41:09.011Z,23.30
2018-09-10T16:43:37.380Z,23.20
2018-09-10T16:46:05.816Z,22.90
2018-09-10T16:48:35.918Z,22.90
2018-09-10T16:51:04.306Z,22.60
2018-09-10T16:53:32.773Z,22.50
2018-09-10T16:56:01.237Z,22.60
2018-09-10T16:58:29.681Z,22.40
2018-09-10T17:00:58.511Z,22.30
2018-09-10T17:03:26.948Z,22.00
2018-09-10T17:05:55.448Z,22.40
2018-09-10T17:08:23.983Z,21.90
2018-09-10T17:10:52.476Z,22.20
2018-09-10T17:13:21.315Z,21.90
2018-09-10T17:15:49.805Z,21.60
2018-09-10T17:18:18.902Z,21.50
2018-09-10T17:20:47.400Z,21.60
2018-09-10T17:23:15.872Z,21.50
2018-09-10T17:25:44.478Z,21.20
2018-09-10T17:28:13.074Z,21.30
2018-09-10T17:30:41.535Z,20.90
2018-09-10T17:33:09.992Z,20.80
2018-09-10T17:35:38.608Z,20.80
2018-09-10T17:38:07.226Z,20.70
2018-09-10T17:40:35.780Z,20.80
2018-09-10T17:43:04.268Z,20.80
2018-09-10T17:45:33.110Z,20.60
2018-09-10T17:48:02.030Z,20.40
2018-09-10T17:50:30.567Z,20.50
2018-09-10T17:52:59.180Z,20.40
2018-09-10T17:55:27.740Z,20.20
2018-09-10T17:57:56.330Z,20.00
2018-09-10T18:00:24.868Z,19.90
2018-09-10T18:02:53.484Z,19.80
2018-09-10T18:05:22.660Z,19.80
2018-09-10T18:07:51.125Z,19.70
2018-09-10T18:10:19.626Z,20.00
2018-09-10T18:12:49.150Z,20.30
2018-09-10T18:15:18.107Z,20.00
2018-09-10T18:17:46.697Z,20.00
2018-09-10T18:20:15.280Z,19.70
2018-09-10T18:22:43.909Z,19.70
2018-09-10T18:25:12.841Z,19.60
2018-09-10T18:30:10.592Z,19.80
2018-09-10T18:32:39.498Z,19.90
2018-09-10T18:37:37.182Z,19.60
2018-09-10T18:40:06.541Z,19.60
2018-09-10T18:42:35.107Z,19.50
2018-09-10T18:45:03.669Z,19.70
2018-09-10T18:47:32.600Z,19.60
2018-09-10T18:50:03.075Z,19.40
2018-09-10T18:52:32.797Z,19.30
2018-09-10T18:55:01.383Z,19.20
2018-09-10T19:00:25.247Z,19.20
2018-09-10T19:02:54.740Z,19.20
2018-09-10T19:05:23.995Z,18.80
2018-09-10T19:07:52.573Z,18.90
2018-09-10T19:10:22.117Z,19.20
2018-09-10T19:12:52.187Z,19.10
2018-09-10T19:15:20.837Z,19.20
2018-09-10T19:17:51.025Z,18.80
2018-09-10T19:20:20.036Z,19.10
2018-09-10T19:22:48.603Z,18.30
2018-09-10T19:25:18.463Z,18.70
2018-09-10T19:27:47.055Z,19.10
2018-09-10T19:30:15.798Z,18.70
2018-09-10T19:32:46.277Z,18.70
2018-09-10T19:35:15.573Z,18.70
2018-09-10T19:37:44.686Z,18.50
2018-09-10T19:40:13.324Z,18.70
2018-09-10T19:45:11.165Z,18.30
2018-09-10T19:50:08.767Z,18.60
2018-09-10T19:52:37.580Z,18.50
2018-09-10T19:55:07.240Z,18.40
2018-09-10T19:57:35.891Z,18.60
2018-09-10T20:00:04.582Z,18.20
2018-09-10T20:02:33.298Z,18.40
2018-09-10T20:05:02.622Z,17.90
2018-09-10T20:07:31.509Z,18.10
2018-09-10T20:12:31.499Z,18.30
2018-09-10T20:15:00.560Z,18.40
2018-09-10T20:17:29.591Z,17.90
2018-09-10T20:19:58.533Z,17.90
2018-09-10T20:22:28.018Z,17.80
2018-09-10T20:27:25.860Z,17.70
2018-09-10T20:29:54.420Z,17.70
2018-09-10T20:32:24.080Z,17.70
2018-09-10T20:34:52.695Z,17.40
2018-09-10T20:37:22.308Z,17.80
2018-09-10T20:39:50.878Z,17.70
2018-09-10T20:42:19.661Z,17.40
2018-09-10T20:44:50.217Z,17.40
2018-09-10T20:47:18.774Z,17.10
2018-09-10T20:49:47.796Z,17.20
2018-09-10T20:52:16.553Z,17.40
2018-09-10T20:54:45.154Z,17.00
2018-09-10T20:57:13.620Z,17.00
2018-09-10T20:59:42.918Z,16.80
2018-09-10T21:02:11.527Z,16.90
2018-09-10T21:04:40.131Z,16.70
2018-09-10T21:07:08.580Z,16.60
2018-09-10T21:09:37.098Z,16.80
2018-09-10T21:12:05.566Z,16.70
2018-09-10T21:14:34.035Z,16.40
2018-09-10T21:17:02.530Z,16.50
2018-09-10T21:19:30.991Z,16.50
2018-09-10T21:21:59.464Z,16.50
2018-09-10T21:24:27.953Z,16.50
2018-09-10T21:26:56.404Z,16.70
2018-09-10T21:29:24.932Z,16.40
2018-09-10T21:31:53.416Z,16.50
2018-09-10T21:36:50.067Z,15.90
2018-09-10T21:39:18.568Z,16.20
2018-09-10T21:41:46.982Z,15.80
2018-09-10T21:44:15.452Z,15.80
2018-09-10T21:46:43.885Z,16.30
2018-09-10T21:49:12.312Z,15.90
2018-09-10T21:51:40.811Z,15.90
2018-09-10T21:54:09.263Z,15.70
2018-09-10T21:56:39.103Z,15.90
2018-09-10T21:59:07.645Z,15.80
2018-09-10T22:01:36.105Z,15.60
2018-09-10T22:04:04.557Z,15.50
2018-09-10T22:06:32.977Z,15.40
2018-09-10T22:09:01.421Z,15.70
2018-09-10T22:11:29.843Z,15.40
2018-09-10T22:16:26.365Z,15.30
2018-09-10T22:18:54.779Z,15.50
2018-09-10T22:21:23.165Z,15.30
2018-09-10T22:23:51.551Z,15.20
2018-09-10T22:26:19.962Z,15.40
2018-09-10T22:28:48.386Z,15.20
2018-09-10T22:31:16.829Z,15.10
2018-09-10T22:33:45.255Z,15.60
2018-09-10T22:36:13.675Z,15.20
2018-09-10T22:38:42.107Z,15.10
2018-09-10T22:41:10.535Z,15.10
2018-09-10T22:43:38.947Z,15.30
2018-09-10T22:46:07.351Z,15.20
2018-09-10T22:51:03.975Z,15.40
2018-09-10T22:53:32.395Z,14.60
2018-09-10T22:56:00.684Z,15.50
2018-09-10T22:58:29.062Z,15.10
2018-09-10T23:00:57.447Z,15.00
2018-09-10T23:03:25.875Z,14.90
2018-09-10T23:05:54.321Z,15.00
2018-09-10T23:08:22.705Z,14.80
2018-09-10T23:10:51.158Z,15.00
2018-09-10T23:15:47.681Z,14.90
2018-09-10T23:18:15.954Z,15.10
2018-09-10T23:20:44.375Z,15.00
2018-09-10T23:23:12.731Z,14.90
2018-09-10T23:28:09.129Z,14.80
2018-09-10T23:30:37.482Z,14.90
2018-09-10T23:33:05.765Z,14.90
2018-09-10T23:35:34.132Z,14.60
2018-09-10T23:38:02.455Z,15.10
2018-09-10T23:40:30.921Z,14.60
2018-09-10T23:42:59.325Z,14.50
2018-09-10T23:45:27.634Z,14.50
2018-09-10T23:47:56.081Z,14.60
2018-09-10T23:50:24.523Z,14.70
2018-09-10T23:52:52.931Z,14.80
2018-09-10T23:55:21.383Z,14.70
2018-09-10T23:57:49.791Z,14.50
